createdAt,value
2023-12-11T00:01:39.333Z,3.92
2023-12-11T00:04:41.103Z,4.15
2023-12-11T00:07:42.778Z,3.25
2023-12-11T00:10:44.776Z,2.80
2023-12-11T00:13:46.407Z,2.83
2023-12-11T00:16:48.303Z,2.55
2023-12-11T00:19:50.153Z,2.58
2023-12-11T00:22:51.789Z,3.47
2023-12-11T00:25:53.604Z,3.05
2023-12-11T00:28:55.228Z,4.75
2023-12-11T00:31:57.529Z,2.33
2023-12-11T00:34:59.357Z,2.85
2023-12-11T00:38:01.121Z,4.05
2023-12-11T00:41:02.856Z,1.77
2023-12-11T00:44:04.596Z,2.70
2023-12-11T00:47:06.376Z,2.30
2023-12-11T00:53:09.973Z,1.58
2023-12-11T00:56:11.584Z,3.08
2023-12-11T00:59:13.211Z,2.15
2023-12-11T01:02:14.905Z,2.13
2023-12-11T01:05:16.578Z,2.10
2023-12-11T01:08:18.186Z,2.55
2023-12-11T01:11:19.764Z,2.65
2023-12-11T01:14:21.422Z,2.58
2023-12-11T01:17:37.834Z,3.78
2023-12-11T01:20:42.223Z,3.05
2023-12-11T01:23:43.985Z,2.78
2023-12-11T01:26:45.623Z,3.72
2023-12-11T01:29:47.257Z,3.50
2023-12-11T01:32:48.904Z,2.55
2023-12-11T01:35:50.828Z,2.20
2023-12-11T01:41:54.004Z,1.42
2023-12-11T01:44:55.682Z,4.10
2023-12-11T01:47:58.010Z,2.58
2023-12-11T01:50:59.914Z,2.53
2023-12-11T01:57:04.025Z,2.40
2023-12-11T02:00:07.114Z,3.17
2023-12-11T02:03:10.671Z,3.42
2023-12-11T02:06:12.367Z,4.82
2023-12-11T02:09:14.117Z,1.88
2023-12-11T02:12:15.788Z,2.63
2023-12-11T02:15:42.350Z,5.35
2023-12-11T02:18:44.835Z,2.88
2023-12-11T02:21:46.752Z,2.88
2023-12-11T02:25:01.979Z,3.92
2023-12-11T02:28:05.303Z,3.47
2023-12-11T02:31:07.330Z,5.32
2023-12-11T02:34:10.170Z,3.92
2023-12-11T02:37:12.034Z,4.65
2023-12-11T02:40:13.843Z,3.42
2023-12-11T02:43:15.570Z,3.15
2023-12-11T02:46:17.303Z,4.00
2023-12-11T02:49:19.136Z,3.72
2023-12-11T02:55:22.482Z,3.95
2023-12-11T02:58:24.109Z,2.58
2023-12-11T03:01:26.088Z,4.28
2023-12-11T03:04:27.869Z,2.88
2023-12-11T03:10:32.640Z,5.30
2023-12-11T03:13:34.262Z,3.58
2023-12-11T03:16:36.111Z,4.55
2023-12-11T03:22:39.963Z,3.38
2023-12-11T03:25:42.754Z,2.85
2023-12-11T03:28:44.476Z,2.75
2023-12-11T03:31:46.086Z,4.32
2023-12-11T03:34:52.920Z,3.42
2023-12-11T03:37:54.546Z,5.13
2023-12-11T03:40:56.318Z,2.97
2023-12-11T03:46:59.492Z,3.20
2023-12-11T03:50:01.273Z,5.75
2023-12-11T03:56:13.048Z,3.72
2023-12-11T03:59:14.852Z,3.22
2023-12-11T04:05:20.040Z,3.53
2023-12-11T04:08:21.772Z,2.38
2023-12-11T04:11:23.419Z,1.98
2023-12-11T04:14:25.308Z,4.80
2023-12-11T04:17:27.022Z,3.17
2023-12-11T04:20:28.662Z,2.30
2023-12-11T04:23:30.403Z,3.35
2023-12-11T04:26:32.182Z,3.40
2023-12-11T04:29:33.796Z,3.67
2023-12-11T04:32:35.474Z,2.70
2023-12-11T04:35:37.291Z,5.35
2023-12-11T04:41:40.588Z,1.90
2023-12-11T04:47:43.792Z,2.63
2023-12-11T04:50:45.520Z,4.68
2023-12-11T04:53:47.184Z,3.15
2023-12-11T04:56:48.925Z,4.32
2023-12-11T04:59:50.843Z,3.90
2023-12-11T05:02:52.585Z,2.15
2023-12-11T05:08:55.813Z,3.17
2023-12-11T05:11:57.434Z,2.92
2023-12-11T05:15:01.162Z,3.10
2023-12-11T05:18:02.880Z,3.20
2023-12-11T05:24:13.050Z,4.22
2023-12-11T05:27:15.082Z,3.08
2023-12-11T05:30:16.936Z,3.47
2023-12-11T05:33:18.716Z,2.47
2023-12-11T05:36:20.506Z,4.18
2023-12-11T05:39:22.119Z,4.75
2023-12-11T05:42:23.785Z,2.90
2023-12-11T05:45:25.419Z,2.92
2023-12-11T05:48:27.231Z,3.55
2023-12-11T05:54:30.957Z,1.73
2023-12-11T05:57:32.989Z,3.63
2023-12-11T06:00:35.199Z,2.53
2023-12-11T06:03:36.950Z,3.30
2023-12-11T06:09:40.205Z,2.33
2023-12-11T06:12:42.082Z,2.00
2023-12-11T06:15:44.432Z,2.53
2023-12-11T06:18:46.275Z,1.95
2023-12-11T06:21:48.041Z,1.92
2023-12-11T06:27:52.978Z,1.92
2023-12-11T06:30:54.890Z,2.55
2023-12-11T06:33:57.808Z,2.08
2023-12-11T06:36:59.702Z,2.97
2023-12-11T06:40:01.917Z,3.55
2023-12-11T06:46:05.767Z,1.40
2023-12-11T06:52:09.889Z,3.58
2023-12-11T06:55:11.587Z,1.30
2023-12-11T06:58:13.321Z,3.50
2023-12-11T07:04:17.423Z,2.55
2023-12-11T07:07:19.253Z,1.83
2023-12-11T07:13:22.644Z,2.33
2023-12-11T07:16:27.307Z,2.08
2023-12-11T07:19:29.132Z,2.35
2023-12-11T07:22:34.445Z,2.33
2023-12-11T07:25:36.409Z,2.08
2023-12-11T07:28:38.914Z,1.98
2023-12-11T07:31:42.619Z,2.63
2023-12-11T07:34:44.367Z,2.05
2023-12-11T07:37:46.124Z,3.58
2023-12-11T07:43:59.226Z,2.78
2023-12-11T07:47:07.137Z,3.75
2023-12-11T07:50:08.992Z,2.58
2023-12-11T07:53:10.682Z,2.22
2023-12-11T07:59:20.851Z,3.38
2023-12-11T08:05:24.033Z,3.33
2023-12-11T08:08:25.684Z,6.28
2023-12-11T08:11:31.049Z,4.15
2023-12-11T08:14:35.026Z,4.82
2023-12-11T08:17:38.110Z,2.45
2023-12-11T08:23:49.125Z,3.42
2023-12-11T08:26:50.893Z,1.95
2023-12-11T08:32:54.195Z,2.67
2023-12-11T08:38:57.417Z,0.65
2023-12-11T08:45:00.932Z,3.65
2023-12-11T08:48:02.684Z,3.22
2023-12-11T08:51:04.790Z,5.45
2023-12-11T08:54:06.854Z,5.30
2023-12-11T08:57:08.686Z,4.95
2023-12-11T09:00:11.485Z,4.93
2023-12-11T09:03:13.260Z,3.53
2023-12-11T09:06:15.011Z,3.75
2023-12-11T09:09:16.742Z,3.70
2023-12-11T09:15:34.852Z,2.95
2023-12-11T09:18:37.710Z,3.53
2023-12-11T09:21:39.510Z,3.83
2023-12-11T09:24:41.158Z,3.65
2023-12-11T09:30:45.097Z,4.63
2023-12-11T09:33:46.974Z,3.55
2023-12-11T09:36:48.819Z,3.92
2023-12-11T09:39:50.764Z,2.75
2023-12-11T09:42:52.878Z,4.90
2023-12-11T09:45:56.116Z,4.10
2023-12-11T09:48:57.850Z,3.58
2023-12-11T09:52:00.523Z,3.60
2023-12-11T09:55:03.534Z,3.97
2023-12-11T09:58:05.788Z,3.45
2023-12-11T10:01:08.353Z,3.60
2023-12-11T10:04:10.225Z,4.03
2023-12-11T10:07:12.379Z,4.03
2023-12-11T10:10:34.583Z,3.50
2023-12-11T10:13:36.792Z,4.75
2023-12-11T10:16:38.562Z,3.85
2023-12-11T10:19:40.347Z,5.65
2023-12-11T10:22:42.129Z,4.40
2023-12-11T10:26:08.694Z,3.35
2023-12-11T10:29:21.281Z,3.80
2023-12-11T10:32:29.731Z,4.53
2023-12-11T10:35:32.602Z,2.95
2023-12-11T10:38:34.424Z,2.97
2023-12-11T10:44:46.748Z,4.25
2023-12-11T10:47:51.904Z,4.45
2023-12-11T10:50:53.672Z,5.75
2023-12-11T10:53:56.483Z,5.45
2023-12-11T10:57:01.428Z,5.40
2023-12-11T11:00:04.376Z,5.10
2023-12-11T11:03:10.375Z,4.60
2023-12-11T11:06:12.546Z,6.15
2023-12-11T11:09:23.994Z,5.40
2023-12-11T11:12:42.583Z,4.22
2023-12-11T11:15:51.307Z,3.58
2023-12-11T11:19:07.057Z,4.40
2023-12-11T11:22:12.040Z,4.93
2023-12-11T11:25:35.490Z,4.32
2023-12-11T11:28:40.424Z,5.45
2023-12-11T11:31:53.924Z,4.38
2023-12-11T11:34:55.771Z,4.60
2023-12-11T11:37:57.605Z,5.32
2023-12-11T11:41:00.159Z,6.47
2023-12-11T11:44:07.770Z,5.22
2023-12-11T11:47:09.435Z,5.55
2023-12-11T11:50:14.236Z,5.60
2023-12-11T11:53:18.334Z,5.55
2023-12-11T11:56:20.054Z,5.63
2023-12-11T11:59:21.764Z,5.68
2023-12-11T12:02:24.582Z,5.38
2023-12-11T12:05:27.636Z,5.75
2023-12-11T12:08:29.810Z,5.38
2023-12-11T12:11:35.265Z,6.13
2023-12-11T12:14:37.019Z,6.05
2023-12-11T12:17:40.275Z,6.85
2023-12-11T12:20:42.391Z,6.13
2023-12-11T12:23:44.065Z,5.57
2023-12-11T12:26:47.412Z,6.15
2023-12-11T12:29:49.457Z,5.25
2023-12-11T12:32:52.502Z,6.20
2023-12-11T12:35:54.693Z,5.32
2023-12-11T12:38:56.693Z,6.32
2023-12-11T12:41:58.366Z,4.97
2023-12-11T12:45:01.006Z,5.97
2023-12-11T12:48:02.761Z,4.00
2023-12-11T12:51:06.288Z,4.25
2023-12-11T12:54:07.902Z,5.53
2023-12-11T12:57:09.770Z,5.75
2023-12-11T13:00:21.659Z,4.70
2023-12-11T13:03:24.716Z,5.20
2023-12-11T13:06:31.639Z,4.70
2023-12-11T13:09:33.714Z,5.10
2023-12-11T13:12:35.390Z,5.60
2023-12-11T13:18:38.539Z,5.50
2023-12-11T13:21:40.215Z,6.05
2023-12-11T13:24:41.869Z,4.65
2023-12-11T13:27:47.834Z,3.75
2023-12-11T13:30:49.735Z,4.75
2023-12-11T13:33:53.038Z,6.05
2023-12-11T13:36:55.125Z,7.50
2023-12-11T13:39:57.901Z,5.93
2023-12-11T13:42:59.634Z,4.38
2023-12-11T13:46:01.459Z,4.82
2023-12-11T13:49:04.039Z,6.05
2023-12-11T13:52:06.104Z,6.03
2023-12-11T13:55:08.350Z,11.35
2023-12-11T13:58:10.051Z,7.70
2023-12-11T14:04:14.742Z,5.00
2023-12-11T14:07:16.451Z,4.80
2023-12-11T14:13:19.888Z,4.20
2023-12-11T14:16:22.308Z,5.32
2023-12-11T14:19:24.075Z,5.18
2023-12-11T14:22:25.791Z,3.65
2023-12-11T14:25:27.589Z,6.22
2023-12-11T14:28:29.337Z,4.20
2023-12-11T14:34:32.685Z,4.57
2023-12-11T14:37:34.945Z,5.28
2023-12-11T14:40:37.006Z,4.03
2023-12-11T14:43:38.721Z,3.40
2023-12-11T14:49:42.033Z,3.70
2023-12-11T14:52:43.783Z,3.53
2023-12-11T14:55:45.566Z,4.03
2023-12-11T14:58:49.672Z,4.47
2023-12-11T15:01:51.529Z,3.90
2023-12-11T15:04:53.311Z,4.97
2023-12-11T15:10:56.607Z,3.40
2023-12-11T15:13:58.234Z,5.53
2023-12-11T15:17:00.623Z,6.13
2023-12-11T15:20:10.605Z,4.43
2023-12-11T15:23:13.050Z,5.10
2023-12-11T15:26:21.034Z,2.97
2023-12-11T15:29:22.776Z,4.80
2023-12-11T15:35:26.175Z,3.15
2023-12-11T15:38:29.855Z,3.30
2023-12-11T15:41:31.650Z,3.22
2023-12-11T15:47:59.634Z,6.72
2023-12-11T15:50:56.634Z,4.32
2023-12-11T15:54:04.322Z,3.83
2023-12-11T16:00:12.168Z,3.08
2023-12-11T16:03:13.966Z,5.00
2023-12-11T16:06:15.747Z,9.05
2023-12-11T16:12:20.796Z,7.30
2023-12-11T16:18:24.442Z,6.88
2023-12-11T16:24:27.648Z,7.55
2023-12-11T16:30:31.190Z,5.22
2023-12-11T16:36:34.592Z,4.53
2023-12-11T16:39:36.365Z,7.85
2023-12-11T16:42:38.036Z,9.15
2023-12-11T16:45:44.150Z,9.32
2023-12-11T16:48:46.071Z,10.30
2023-12-11T16:51:47.786Z,10.05
2023-12-11T16:57:51.587Z,7.45
2023-12-11T17:00:53.451Z,7.10
2023-12-11T17:03:55.215Z,8.25
2023-12-11T17:06:56.940Z,7.68
2023-12-11T17:13:02.115Z,7.57
2023-12-11T17:16:04.564Z,7.03
2023-12-11T17:19:06.424Z,7.97
2023-12-11T17:22:08.176Z,6.18
2023-12-11T17:25:09.944Z,8.88
2023-12-11T17:28:11.741Z,6.13
2023-12-11T17:31:15.370Z,5.90
2023-12-11T17:34:17.084Z,8.43
2023-12-11T17:37:22.407Z,6.47
2023-12-11T17:40:25.777Z,8.07
2023-12-11T17:43:27.440Z,5.47
2023-12-11T17:46:29.051Z,5.47
2023-12-11T17:49:30.874Z,4.97
2023-12-11T17:52:32.762Z,4.22
2023-12-11T17:55:34.566Z,5.55
2023-12-11T18:01:40.381Z,3.05
2023-12-11T18:04:42.179Z,4.63
2023-12-11T18:07:44.116Z,4.38
2023-12-11T18:10:46.391Z,5.72
2023-12-11T18:13:48.074Z,5.78
2023-12-11T18:19:51.353Z,6.38
2023-12-11T18:22:53.009Z,6.80
2023-12-11T18:25:54.709Z,8.00
2023-12-11T18:28:56.408Z,6.47
2023-12-11T18:35:01.634Z,8.45
2023-12-11T18:38:03.475Z,6.88
2023-12-11T18:44:07.533Z,7.18
2023-12-11T18:47:09.257Z,6.78
2023-12-11T18:53:13.588Z,6.72
2023-12-11T18:56:23.397Z,8.50
2023-12-11T18:59:25.025Z,13.90
2023-12-11T19:05:28.392Z,8.35
2023-12-11T19:08:30.119Z,12.35
2023-12-11T19:14:33.463Z,10.25
2023-12-11T19:17:35.319Z,12.68
2023-12-11T19:20:37.436Z,10.80
2023-12-11T19:23:39.118Z,9.85
2023-12-11T19:29:42.197Z,10.18
2023-12-11T19:35:45.353Z,5.13
2023-12-11T19:41:48.498Z,6.55
2023-12-11T19:44:50.083Z,9.00
2023-12-11T19:47:51.955Z,7.95
2023-12-11T19:50:53.620Z,5.45
2023-12-11T19:56:56.759Z,7.15
2023-12-11T19:59:58.418Z,6.75
2023-12-11T20:06:01.946Z,5.95
2023-12-11T20:09:03.651Z,7.93
2023-12-11T20:15:16.078Z,8.32
2023-12-11T20:21:19.876Z,5.80
2023-12-11T20:24:21.505Z,7.32
2023-12-11T20:27:23.090Z,8.32
2023-12-11T20:30:24.748Z,6.70
2023-12-11T20:36:29.661Z,8.35
2023-12-11T20:39:31.942Z,7.68
2023-12-11T20:45:35.646Z,5.18
2023-12-11T20:48:37.319Z,8.70
2023-12-11T20:51:42.972Z,5.88
2023-12-11T20:54:44.740Z,6.63
2023-12-11T20:57:46.454Z,7.40
2023-12-11T21:00:48.168Z,8.10
2023-12-11T21:06:51.533Z,6.25
2023-12-11T21:12:54.711Z,6.90
2023-12-11T21:15:59.511Z,5.80
2023-12-11T21:19:04.431Z,9.63
2023-12-11T21:22:06.346Z,14.60
2023-12-11T21:28:09.587Z,11.80
2023-12-11T21:31:28.376Z,12.02
2023-12-11T21:34:30.140Z,14.10
2023-12-11T21:37:32.042Z,8.15
2023-12-11T21:40:33.948Z,15.20
2023-12-11T21:46:37.520Z,9.57
2023-12-11T21:49:39.225Z,8.50
2023-12-11T21:55:42.468Z,9.18
2023-12-11T22:01:45.878Z,5.95
2023-12-11T22:04:47.682Z,9.23
2023-12-11T22:10:50.786Z,8.88
2023-12-11T22:13:52.418Z,11.35
2023-12-11T22:16:54.014Z,7.22
2023-12-11T22:19:58.250Z,9.68
2023-12-11T22:22:59.910Z,11.55
2023-12-11T22:26:01.522Z,8.25
2023-12-11T22:32:06.601Z,9.13
2023-12-11T22:35:08.606Z,10.60
2023-12-11T22:38:11.022Z,10.93
2023-12-11T22:41:27.030Z,9.85
2023-12-11T22:44:28.642Z,9.77
2023-12-11T22:47:30.470Z,11.98
2023-12-11T22:50:32.328Z,11.68
2023-12-11T22:56:35.354Z,8.35
2023-12-11T22:59:37.329Z,9.25
2023-12-11T23:02:38.976Z,10.40
2023-12-11T23:05:46.739Z,7.50
2023-12-11T23:08:48.612Z,8.88
2023-12-11T23:11:50.180Z,9.90
2023-12-11T23:14:51.747Z,9.48
2023-12-11T23:17:53.450Z,10.43
2023-12-11T23:23:57.854Z,10.30
2023-12-11T23:26:59.443Z,13.70
2023-12-11T23:30:07.139Z,17.20
2023-12-11T23:33:09.941Z,14.68
2023-12-11T23:36:12.832Z,15.00
2023-12-11T23:39:14.408Z,14.48
2023-12-11T23:42:15.979Z,9.02
2023-12-11T23:45:17.717Z,11.07
2023-12-11T23:51:21.361Z,18.77
2023-12-11T23:54:23.071Z,11.68
